createdAt,value
2023-05-08T00:01:31.174Z,80.80
2023-05-08T00:03:58.507Z,81.00
2023-05-08T00:06:27.420Z,81.00
2023-05-08T00:08:55.686Z,81.30
2023-05-08T00:11:22.776Z,81.40
2023-05-08T00:13:49.716Z,81.70
2023-05-08T00:16:16.663Z,81.70
2023-05-08T00:18:43.536Z,82.00
2023-05-08T00:21:10.498Z,82.10
2023-05-08T00:23:37.459Z,82.00
2023-05-08T00:26:04.525Z,82.60
2023-05-08T00:28:31.449Z,82.90
2023-05-08T00:31:03.901Z,82.90
2023-05-08T00:33:30.824Z,82.70
2023-05-08T00:36:03.426Z,82.90
2023-05-08T00:38:36.700Z,82.80
2023-05-08T00:41:04.282Z,83.00
2023-05-08T00:43:31.196Z,83.40
2023-05-08T00:46:01.659Z,83.10
2023-05-08T00:48:33.623Z,83.40
2023-05-08T00:51:06.331Z,83.50
2023-05-08T00:53:40.705Z,83.80
2023-05-08T00:56:13.764Z,83.60
2023-05-08T00:58:43.398Z,83.40
2023-05-08T01:01:11.469Z,83.30
2023-05-08T01:03:39.570Z,83.30
2023-05-08T01:06:07.143Z,83.00
2023-05-08T01:08:34.833Z,83.00
2023-05-08T01:11:47.611Z,82.50
2023-05-08T01:14:42.625Z,82.40
2023-05-08T01:17:26.548Z,82.10
2023-05-08T01:20:27.387Z,81.80
2023-05-08T01:23:38.403Z,81.80
2023-05-08T01:26:39.101Z,81.40
2023-05-08T01:30:12.231Z,81.20
2023-05-08T01:32:58.108Z,81.40
2023-05-08T01:35:40.912Z,81.50
2023-05-08T01:38:22.501Z,81.80
2023-05-08T01:41:26.340Z,81.40
2023-05-08T01:44:26.405Z,81.50
2023-05-08T01:46:54.179Z,81.30
2023-05-08T01:49:39.974Z,81.50
2023-05-08T01:52:22.282Z,81.60
2023-05-08T01:55:24.330Z,81.70
2023-05-08T01:57:58.081Z,81.80
2023-05-08T02:00:28.496Z,81.80
2023-05-08T02:02:58.159Z,81.80
2023-05-08T02:05:29.050Z,82.10
2023-05-08T02:07:57.300Z,81.90
2023-05-08T02:10:27.960Z,81.80
2023-05-08T02:12:57.824Z,82.30
2023-05-08T02:15:29.330Z,82.40
2023-05-08T02:17:59.129Z,82.50
2023-05-08T02:20:29.325Z,82.40
2023-05-08T02:22:57.549Z,82.50
2023-05-08T02:25:26.954Z,82.50
2023-05-08T02:27:56.118Z,82.70
2023-05-08T02:30:26.331Z,82.70
2023-05-08T02:33:00.612Z,83.20
2023-05-08T02:35:30.985Z,83.40
2023-05-08T02:38:01.322Z,83.40
2023-05-08T02:40:31.227Z,83.70
2023-05-08T02:42:58.312Z,83.80
2023-05-08T02:45:43.566Z,84.00
2023-05-08T02:48:40.923Z,84.30
2023-05-08T02:51:47.445Z,85.80
2023-05-08T02:54:59.909Z,86.30
2023-05-08T02:57:50.758Z,86.50
2023-05-08T03:00:28.739Z,86.80
2023-05-08T03:03:21.117Z,87.00
2023-05-08T03:05:56.638Z,87.00
2023-05-08T03:08:34.994Z,87.30
2023-05-08T03:11:16.454Z,87.50
2023-05-08T03:13:48.016Z,87.50
2023-05-08T03:16:25.764Z,88.10
2023-05-08T03:19:07.218Z,88.30
2023-05-08T03:21:37.193Z,88.40
2023-05-08T03:24:08.371Z,88.60
2023-05-08T03:26:36.648Z,89.00
2023-05-08T03:29:06.042Z,89.40
2023-05-08T03:31:36.067Z,89.20
2023-05-08T03:34:05.279Z,89.40
2023-05-08T03:36:32.653Z,89.60
2023-05-08T03:39:00.880Z,89.70
2023-05-08T03:41:27.831Z,89.90
2023-05-08T03:43:57.300Z,89.90
2023-05-08T03:46:25.999Z,90.00
2023-05-08T03:48:55.049Z,90.10
2023-05-08T03:51:23.006Z,90.20
2023-05-08T03:53:49.881Z,90.40
2023-05-08T03:56:17.361Z,90.40
2023-05-08T03:59:16.843Z,90.50
2023-05-08T04:02:18.547Z,90.60
2023-05-08T04:04:59.124Z,90.60
2023-05-08T04:07:38.972Z,90.80
2023-05-08T04:10:33.068Z,90.80
2023-05-08T04:13:14.138Z,90.90
2023-05-08T04:15:54.851Z,90.80
2023-05-08T04:18:30.155Z,90.70
2023-05-08T04:21:01.544Z,90.70
2023-05-08T04:23:30.244Z,90.70
2023-05-08T04:26:00.884Z,90.60
2023-05-08T04:28:28.250Z,90.50
2023-05-08T04:30:58.803Z,90.60
2023-05-08T04:33:26.383Z,90.50
2023-05-08T04:35:54.187Z,90.60
2023-05-08T04:38:21.036Z,90.70
2023-05-08T04:40:47.989Z,90.60
2023-05-08T04:43:14.941Z,90.50
2023-05-08T04:45:41.851Z,90.30
2023-05-08T04:48:08.841Z,90.40
2023-05-08T04:50:35.812Z,90.20
2023-05-08T04:53:02.663Z,90.30
2023-05-08T04:55:29.635Z,90.30
2023-05-08T04:57:56.544Z,90.20
2023-05-08T05:00:23.668Z,90.30
2023-05-08T05:02:50.676Z,90.40
2023-05-08T05:05:17.803Z,90.40
2023-05-08T05:07:44.799Z,90.30
2023-05-08T05:10:11.763Z,90.40
2023-05-08T05:12:38.769Z,90.40
2023-05-08T05:15:06.819Z,90.60
2023-05-08T05:17:33.809Z,90.40
2023-05-08T05:20:00.759Z,90.30
2023-05-08T05:22:28.618Z,90.20
2023-05-08T05:24:55.538Z,90.20
2023-05-08T05:27:22.458Z,90.10
2023-05-08T05:29:49.398Z,90.20
2023-05-08T05:32:16.654Z,89.70
2023-05-08T05:34:43.522Z,88.50
2023-05-08T05:37:10.381Z,88.10
2023-05-08T05:39:37.755Z,88.00
2023-05-08T05:42:04.737Z,87.50
2023-05-08T05:44:31.596Z,87.40
2023-05-08T05:46:58.470Z,86.90
2023-05-08T05:49:25.383Z,86.50
2023-05-08T05:51:52.327Z,85.50
2023-05-08T05:54:19.223Z,85.10
2023-05-08T05:56:46.070Z,85.10
2023-05-08T05:59:12.919Z,85.20
2023-05-08T06:01:39.916Z,85.30
2023-05-08T06:04:07.033Z,84.90
2023-05-08T06:06:34.011Z,83.50
2023-05-08T06:09:01.368Z,83.30
2023-05-08T06:11:28.199Z,83.50
2023-05-08T06:13:55.101Z,83.60
2023-05-08T06:16:23.010Z,82.90
2023-05-08T06:18:49.920Z,82.70
2023-05-08T06:21:17.041Z,83.00
2023-05-08T06:23:44.092Z,82.00
2023-05-08T06:26:11.014Z,82.40
2023-05-08T06:28:38.005Z,81.70
2023-05-08T06:31:05.053Z,81.00
2023-05-08T06:33:31.975Z,80.60
2023-05-08T06:35:58.923Z,81.00
2023-05-08T06:38:25.842Z,81.00
2023-05-08T06:40:53.822Z,80.30
2023-05-08T06:43:21.598Z,80.00
2023-05-08T06:45:48.695Z,80.40
2023-05-08T06:48:15.692Z,80.20
2023-05-08T06:50:43.183Z,79.50
2023-05-08T06:53:10.156Z,78.90
2023-05-08T06:55:37.186Z,78.90
2023-05-08T06:58:04.351Z,78.60
2023-05-08T07:00:31.238Z,79.20
2023-05-08T07:02:58.144Z,79.00
2023-05-08T07:05:25.180Z,79.20
2023-05-08T07:07:54.034Z,79.10
2023-05-08T07:10:22.900Z,79.30
2023-05-08T07:12:50.234Z,79.00
2023-05-08T07:15:25.536Z,78.60
2023-05-08T07:17:53.910Z,78.40
2023-05-08T07:20:21.490Z,78.00
2023-05-08T07:22:48.613Z,77.30
2023-05-08T07:25:16.082Z,77.80
2023-05-08T07:27:43.339Z,78.00
2023-05-08T07:30:11.041Z,77.50
2023-05-08T07:32:39.164Z,77.50
2023-05-08T07:35:11.501Z,77.90
2023-05-08T07:37:40.033Z,76.50
2023-05-08T07:40:08.625Z,77.00
2023-05-08T07:42:44.048Z,77.30
2023-05-08T07:45:14.077Z,75.80
2023-05-08T07:47:54.815Z,75.10
2023-05-08T07:50:24.272Z,75.00
2023-05-08T07:52:53.416Z,74.70
2023-05-08T07:55:21.387Z,74.80
2023-05-08T07:57:48.260Z,74.30
2023-05-08T08:03:50.388Z,70.00
2023-05-08T08:06:18.413Z,69.60
2023-05-08T08:08:45.306Z,70.20
2023-05-08T08:11:12.271Z,69.20
2023-05-08T08:13:39.153Z,69.00
2023-05-08T08:16:06.674Z,70.00
2023-05-08T08:18:36.829Z,68.70
2023-05-08T08:21:07.740Z,68.90
2023-05-08T08:23:34.913Z,68.40
2023-05-08T08:26:01.787Z,67.50
2023-05-08T08:28:28.774Z,67.90
2023-05-08T08:30:55.678Z,68.40
2023-05-08T08:33:22.689Z,68.70
2023-05-08T08:35:49.687Z,69.50
2023-05-08T08:38:16.776Z,70.50
2023-05-08T08:40:44.542Z,69.40
2023-05-08T08:43:11.543Z,69.60
2023-05-08T08:45:39.242Z,68.90
2023-05-08T08:48:12.339Z,69.00
2023-05-08T08:50:46.686Z,68.10
2023-05-08T08:53:35.674Z,69.10
2023-05-08T08:56:08.236Z,67.70
2023-05-08T08:58:59.295Z,68.70
2023-05-08T09:01:29.594Z,68.70
2023-05-08T09:03:59.827Z,66.80
2023-05-08T09:06:27.496Z,68.20
2023-05-08T09:08:58.687Z,67.30
2023-05-08T09:11:25.790Z,67.30
2023-05-08T09:13:52.759Z,67.20
2023-05-08T09:16:20.012Z,66.80
2023-05-08T09:18:47.087Z,67.00
2023-05-08T09:21:14.765Z,66.30
2023-05-08T09:24:03.176Z,66.30
2023-05-08T09:26:39.327Z,65.30
2023-05-08T09:29:22.424Z,65.80
2023-05-08T09:31:53.231Z,63.80
2023-05-08T09:34:33.310Z,63.80
2023-05-08T09:37:06.120Z,64.00
2023-05-08T09:39:33.054Z,63.70
2023-05-08T09:42:03.913Z,62.70
2023-05-08T09:44:52.954Z,62.90
2023-05-08T09:47:25.269Z,62.60
2023-05-08T09:50:11.175Z,63.00
2023-05-08T09:52:46.868Z,63.90
2023-05-08T09:55:13.881Z,63.50
2023-05-08T09:57:58.468Z,63.90
2023-05-08T10:00:29.201Z,62.90
2023-05-08T10:03:04.042Z,63.40
2023-05-08T10:05:36.193Z,64.10
2023-05-08T10:08:22.886Z,63.70
2023-05-08T10:10:50.442Z,63.70
2023-05-08T10:13:17.383Z,64.90
2023-05-08T10:15:45.717Z,65.10
2023-05-08T10:18:17.274Z,65.30
2023-05-08T10:20:50.232Z,64.60
2023-05-08T10:23:18.963Z,64.50
2023-05-08T10:25:54.177Z,64.80
2023-05-08T10:28:43.040Z,64.50
2023-05-08T10:31:17.192Z,65.10
2023-05-08T10:33:48.798Z,65.10
2023-05-08T10:36:16.819Z,64.80
2023-05-08T10:38:44.897Z,65.80
2023-05-08T10:41:13.428Z,65.80
2023-05-08T10:43:43.577Z,65.90
2023-05-08T10:46:30.315Z,66.80
2023-05-08T10:49:39.762Z,64.80
2023-05-08T10:52:43.097Z,64.50
2023-05-08T10:55:33.017Z,64.60
2023-05-08T10:58:31.786Z,65.70
2023-05-08T11:01:07.261Z,64.30
2023-05-08T11:03:45.319Z,63.80
2023-05-08T11:06:13.792Z,63.00
2023-05-08T11:08:53.017Z,63.30
2023-05-08T11:11:38.085Z,63.60
2023-05-08T11:14:07.934Z,63.90
2023-05-08T11:16:59.795Z,64.60
2023-05-08T11:19:28.349Z,64.50
2023-05-08T11:22:19.277Z,64.20
2023-05-08T11:25:00.722Z,63.10
2023-05-08T11:28:06.649Z,62.00
2023-05-08T11:30:35.183Z,62.90
2023-05-08T11:33:05.257Z,63.10
2023-05-08T11:36:22.641Z,63.60
2023-05-08T11:39:15.879Z,63.30
2023-05-08T11:41:42.833Z,64.40
2023-05-08T11:44:20.381Z,64.40
2023-05-08T11:46:55.595Z,64.30
2023-05-08T11:49:29.355Z,63.50
2023-05-08T11:51:59.898Z,63.50
2023-05-08T11:54:31.454Z,64.60
2023-05-08T11:56:59.430Z,63.50
2023-05-08T11:59:26.597Z,63.60
2023-05-08T12:02:06.918Z,63.40
2023-05-08T12:04:45.648Z,62.30
2023-05-08T12:07:12.844Z,62.40
2023-05-08T12:09:39.732Z,61.90
2023-05-08T12:12:07.099Z,62.60
2023-05-08T12:14:35.104Z,62.20
2023-05-08T12:17:03.588Z,62.20
2023-05-08T12:19:30.489Z,62.10
2023-05-08T12:21:58.328Z,62.10
2023-05-08T12:24:26.611Z,62.60
2023-05-08T12:26:56.688Z,62.60
2023-05-08T12:29:23.863Z,61.60
2023-05-08T12:31:51.676Z,61.20
2023-05-08T12:34:18.933Z,61.40
2023-05-08T12:36:45.917Z,62.80
2023-05-08T12:39:18.658Z,63.20
2023-05-08T12:41:50.884Z,62.60
2023-05-08T12:44:25.978Z,62.60
2023-05-08T12:46:57.600Z,62.40
2023-05-08T12:49:32.811Z,63.50
2023-05-08T12:52:09.455Z,64.20
2023-05-08T12:54:48.138Z,64.20
2023-05-08T12:57:19.009Z,64.40
2023-05-08T12:59:46.849Z,64.50
2023-05-08T13:02:26.301Z,64.70
2023-05-08T13:04:56.864Z,65.00
2023-05-08T13:07:24.114Z,63.40
2023-05-08T13:10:03.464Z,63.70
2023-05-08T13:12:31.731Z,62.70
2023-05-08T13:14:58.609Z,63.80
2023-05-08T13:17:25.514Z,63.90
2023-05-08T13:19:52.437Z,64.30
2023-05-08T13:22:22.854Z,64.30
2023-05-08T13:24:49.708Z,64.00
2023-05-08T13:27:16.685Z,63.10
2023-05-08T13:29:43.568Z,63.50
2023-05-08T13:32:10.682Z,63.50
2023-05-08T13:34:41.458Z,62.70
2023-05-08T13:37:14.419Z,64.70
2023-05-08T13:39:41.332Z,64.40
2023-05-08T13:42:08.242Z,63.50
2023-05-08T13:44:35.216Z,61.70
2023-05-08T13:47:02.063Z,61.20
2023-05-08T13:49:28.931Z,59.80
2023-05-08T13:51:57.109Z,60.10
2023-05-08T13:54:24.405Z,60.30
2023-05-08T13:56:51.262Z,60.30
2023-05-08T13:59:18.196Z,61.10
2023-05-08T14:01:45.589Z,60.90
2023-05-08T14:04:12.727Z,61.40
2023-05-08T14:06:39.709Z,60.90
2023-05-08T14:09:06.608Z,60.60
2023-05-08T14:11:33.461Z,60.90
2023-05-08T14:14:00.476Z,61.40
2023-05-08T14:16:28.493Z,61.20
2023-05-08T14:18:55.832Z,61.90
2023-05-08T14:21:22.777Z,61.80
2023-05-08T14:23:49.734Z,62.10
2023-05-08T14:26:16.613Z,62.50
2023-05-08T14:28:43.481Z,61.40
2023-05-08T14:31:10.589Z,61.40
2023-05-08T14:33:37.591Z,61.20
2023-05-08T14:36:05.060Z,59.30
2023-05-08T14:38:31.953Z,57.90
2023-05-08T14:41:00.241Z,57.90
2023-05-08T14:43:28.497Z,59.00
2023-05-08T14:45:55.660Z,58.80
2023-05-08T14:48:22.620Z,59.60
2023-05-08T14:50:49.525Z,60.20
2023-05-08T14:53:16.641Z,59.70
2023-05-08T14:55:43.944Z,61.10
2023-05-08T14:58:11.008Z,61.00
2023-05-08T15:00:39.102Z,61.90
2023-05-08T15:03:06.409Z,62.00
2023-05-08T15:05:33.516Z,62.40
2023-05-08T15:08:03.044Z,63.30
2023-05-08T15:10:30.550Z,63.00
2023-05-08T15:12:57.561Z,63.00
2023-05-08T15:15:24.601Z,63.90
2023-05-08T15:17:51.848Z,62.90
2023-05-08T15:20:21.311Z,63.50
2023-05-08T15:22:48.348Z,64.20
2023-05-08T15:25:15.978Z,64.60
2023-05-08T15:27:43.228Z,64.60
2023-05-08T15:30:10.888Z,64.70
2023-05-08T15:32:38.153Z,64.80
2023-05-08T15:35:06.540Z,64.10
2023-05-08T15:37:33.397Z,64.90
2023-05-08T15:40:00.431Z,64.70
2023-05-08T15:42:27.461Z,64.70
2023-05-08T15:44:58.250Z,65.10
2023-05-08T15:47:28.962Z,65.90
2023-05-08T15:49:55.959Z,66.50
2023-05-08T15:52:23.447Z,66.10
2023-05-08T15:54:50.697Z,66.20
2023-05-08T15:57:17.648Z,66.00
2023-05-08T15:59:44.530Z,66.60
2023-05-08T16:02:11.439Z,66.00
2023-05-08T16:04:38.388Z,66.40
2023-05-08T16:07:05.286Z,66.40
2023-05-08T16:09:32.211Z,66.60
2023-05-08T16:11:59.052Z,65.80
2023-05-08T16:14:25.963Z,66.00
2023-05-08T16:16:52.898Z,67.20
2023-05-08T16:19:19.866Z,67.20
2023-05-08T16:21:47.763Z,66.50
2023-05-08T16:24:14.848Z,66.10
2023-05-08T16:26:41.902Z,67.20
2023-05-08T16:29:08.812Z,66.50
2023-05-08T16:31:35.933Z,66.70
2023-05-08T16:34:03.104Z,66.70
2023-05-08T16:36:29.958Z,66.40
2023-05-08T16:38:56.813Z,66.70
2023-05-08T16:41:23.765Z,66.60
2023-05-08T16:43:50.751Z,65.60
2023-05-08T16:46:25.809Z,66.00
2023-05-08T16:48:56.704Z,65.50
2023-05-08T16:51:23.685Z,66.20
2023-05-08T16:53:50.648Z,66.60
2023-05-08T16:56:18.032Z,66.20
2023-05-08T16:58:44.971Z,66.70
2023-05-08T17:01:12.848Z,66.10
2023-05-08T17:03:39.843Z,66.10
2023-05-08T17:06:08.189Z,67.00
2023-05-08T17:08:35.337Z,67.00
2023-05-08T17:11:02.317Z,66.00
2023-05-08T17:13:29.351Z,66.70
2023-05-08T17:15:56.375Z,66.70
2023-05-08T17:18:23.301Z,66.50
2023-05-08T17:20:50.998Z,66.30
2023-05-08T17:23:17.945Z,66.20
2023-05-08T17:25:44.851Z,66.90
2023-05-08T17:28:11.865Z,67.00
2023-05-08T17:30:39.650Z,66.50
2023-05-08T17:33:06.998Z,66.40
2023-05-08T17:35:34.206Z,66.00
2023-05-08T17:38:01.227Z,66.80
2023-05-08T17:40:29.406Z,67.10
2023-05-08T17:42:56.493Z,67.20
2023-05-08T17:45:23.492Z,66.80
2023-05-08T17:47:50.433Z,67.00
2023-05-08T17:50:17.668Z,67.90
2023-05-08T17:52:44.744Z,68.50
2023-05-08T17:55:11.659Z,67.90
2023-05-08T17:57:38.606Z,68.80
2023-05-08T18:00:06.844Z,68.30
2023-05-08T18:02:33.761Z,68.80
2023-05-08T18:05:01.728Z,69.00
2023-05-08T18:07:28.687Z,68.90
2023-05-08T18:09:55.538Z,68.90
2023-05-08T18:12:22.414Z,68.60
2023-05-08T18:14:49.307Z,69.40
2023-05-08T18:17:19.167Z,69.30
2023-05-08T18:19:46.527Z,69.50
2023-05-08T18:22:13.541Z,69.50
2023-05-08T18:24:41.032Z,69.90
2023-05-08T18:27:08.025Z,70.00
2023-05-08T18:29:34.977Z,70.10
2023-05-08T18:32:01.873Z,70.20
2023-05-08T18:34:28.823Z,70.30
2023-05-08T18:36:56.818Z,70.30
2023-05-08T18:39:25.011Z,70.50
2023-05-08T18:41:51.958Z,71.40
2023-05-08T18:44:18.820Z,70.90
2023-05-08T18:46:45.886Z,71.00
2023-05-08T18:49:12.808Z,71.10
2023-05-08T18:51:39.712Z,71.10
2023-05-08T18:54:06.620Z,71.30
2023-05-08T18:56:34.218Z,71.80
2023-05-08T18:59:01.423Z,71.60
2023-05-08T19:01:28.328Z,72.20
2023-05-08T19:03:55.467Z,72.50
2023-05-08T19:06:22.608Z,73.20
2023-05-08T19:08:49.511Z,73.10
2023-05-08T19:11:16.810Z,73.00
2023-05-08T19:13:43.696Z,72.80
2023-05-08T19:16:10.705Z,72.60
2023-05-08T19:18:37.629Z,72.60
2023-05-08T19:21:04.726Z,72.50
2023-05-08T19:23:31.616Z,72.40
2023-05-08T19:25:58.463Z,72.40
2023-05-08T19:28:25.448Z,72.10
2023-05-08T19:30:52.346Z,72.30
2023-05-08T19:33:20.593Z,72.40
2023-05-08T19:35:48.544Z,72.60
2023-05-08T19:38:15.671Z,72.70
2023-05-08T19:40:55.545Z,72.70
2023-05-08T19:43:25.097Z,72.80
2023-05-08T19:45:52.237Z,73.10
2023-05-08T19:48:19.968Z,73.10
2023-05-08T19:50:46.950Z,73.10
2023-05-08T19:53:14.967Z,73.20
2023-05-08T19:55:41.847Z,73.60
2023-05-08T19:58:08.701Z,73.70
2023-05-08T20:00:35.742Z,73.50
2023-05-08T20:03:02.794Z,73.30
2023-05-08T20:05:30.597Z,73.60
2023-05-08T20:07:57.479Z,73.70
2023-05-08T20:10:24.785Z,73.90
2023-05-08T20:12:51.739Z,73.90
2023-05-08T20:15:18.706Z,74.10
2023-05-08T20:17:45.581Z,73.90
2023-05-08T20:20:13.171Z,74.10
2023-05-08T20:22:40.480Z,74.20
2023-05-08T20:25:08.306Z,74.30
2023-05-08T20:27:35.354Z,74.50
2023-05-08T20:30:02.260Z,74.80
2023-05-08T20:32:29.163Z,74.80
2023-05-08T20:34:56.019Z,74.80
2023-05-08T20:37:23.027Z,74.70
2023-05-08T20:39:50.091Z,74.40
2023-05-08T20:42:16.953Z,74.40
2023-05-08T20:44:43.821Z,74.90
2023-05-08T20:47:10.680Z,74.30
2023-05-08T20:49:37.552Z,74.30
2023-05-08T20:52:05.515Z,74.30
2023-05-08T20:54:32.712Z,74.30
2023-05-08T20:56:59.842Z,74.30
2023-05-08T20:59:26.706Z,74.40
2023-05-08T21:01:53.637Z,74.40
2023-05-08T21:04:20.749Z,74.50
2023-05-08T21:06:48.356Z,74.90
2023-05-08T21:09:16.526Z,76.30
2023-05-08T21:11:43.412Z,75.40
2023-05-08T21:14:10.694Z,75.30
2023-05-08T21:16:37.719Z,75.20
2023-05-08T21:19:04.698Z,75.50
2023-05-08T21:21:31.638Z,75.10
2023-05-08T21:23:58.561Z,75.10
2023-05-08T21:26:25.506Z,75.30
2023-05-08T21:28:53.613Z,75.60
2023-05-08T21:31:20.715Z,75.60
2023-05-08T21:33:47.714Z,75.70
2023-05-08T21:36:14.645Z,75.60
2023-05-08T21:38:41.784Z,75.70
2023-05-08T21:41:08.951Z,75.80
2023-05-08T21:43:37.025Z,76.80
2023-05-08T21:46:07.015Z,77.10
2023-05-08T21:48:34.237Z,76.80
2023-05-08T21:51:02.219Z,76.80
2023-05-08T21:53:29.382Z,76.70
2023-05-08T21:55:56.310Z,76.50
2023-05-08T21:58:24.084Z,76.50
2023-05-08T22:00:51.295Z,76.40
2023-05-08T22:03:18.684Z,76.30
2023-05-08T22:05:45.693Z,76.20
2023-05-08T22:08:12.654Z,76.10
2023-05-08T22:10:39.671Z,75.90
2023-05-08T22:13:07.387Z,75.60
2023-05-08T22:15:34.516Z,74.70
2023-05-08T22:18:02.669Z,74.70
2023-05-08T22:20:30.296Z,75.20
2023-05-08T22:22:57.243Z,74.50
2023-05-08T22:25:25.121Z,74.50
2023-05-08T22:27:52.346Z,74.50
2023-05-08T22:30:19.257Z,74.30
2023-05-08T22:32:56.882Z,74.20
2023-05-08T22:35:27.476Z,74.10
2023-05-08T22:37:55.328Z,74.10
2023-05-08T22:40:22.400Z,74.30
2023-05-08T22:42:53.219Z,74.50
2023-05-08T22:45:20.736Z,74.70
2023-05-08T22:47:47.999Z,75.00
2023-05-08T22:50:14.951Z,75.30
2023-05-08T22:52:42.781Z,75.30
2023-05-08T22:55:09.937Z,75.60
2023-05-08T22:57:36.958Z,75.60
2023-05-08T23:00:06.182Z,75.00
2023-05-08T23:02:35.157Z,74.80
2023-05-08T23:05:02.458Z,74.70
2023-05-08T23:07:29.803Z,74.70
2023-05-08T23:09:56.818Z,74.60
2023-05-08T23:12:23.837Z,74.60
2023-05-08T23:14:51.400Z,74.60
2023-05-08T23:17:18.289Z,74.70
2023-05-08T23:19:45.487Z,74.50
2023-05-08T23:22:12.563Z,74.00
2023-05-08T23:24:39.473Z,74.40
2023-05-08T23:27:06.486Z,73.90
2023-05-08T23:29:33.437Z,73.80
2023-05-08T23:32:00.518Z,74.00
2023-05-08T23:34:27.580Z,74.20
2023-05-08T23:36:54.497Z,73.90
2023-05-08T23:39:21.425Z,74.10
2023-05-08T23:41:48.426Z,74.30
2023-05-08T23:44:16.473Z,74.30
2023-05-08T23:46:43.373Z,74.20
2023-05-08T23:49:10.906Z,74.20
2023-05-08T23:51:38.062Z,74.30
2023-05-08T23:54:05.578Z,74.40
2023-05-08T23:56:32.930Z,74.50
2023-05-08T23:58:59.788Z,74.70
